San Francisco, California
Traffic Map
Current Weather Conditions
San Francisco, California
Few Clouds
Few Clouds
12°
Feels Like: 12°
Wind Chill: 12° Ceiling: Unl
Heat Index: 12° Visibility: 10mi
Dew Point: 12° Wind: 13mph
Humidity: 97% Direction: 280° (W)
Pressure: 30.06in Gusts: 0mph
Raw Report DataKSFO 300856Z 28011KT 10SM FEW011 12/12 A3006 RMK AO2 SLP177 T01220117 58004
Traffic Incident Summary
Active as of:
Severity:
Category:
InformationThere was an issue retrieving the traffic information for this location. Please try a different location or try again shortly.
Advertisements
Track Severe Weather on mobile